Time;durP1;ratioP1;P1;durP2;ratioP2;P2;SDS_P1;SDS_P2;PMS_P1;PMS_P2;Temp;Humidity;BMP_temperature;BMP_pressure;BME280_temperature;BME280_humidity;BME280_pressure;Samples;Min_cycle;Max_cycle;Signal;HPM_P1;HPM_P2
2022/04/15 00:00:42;;;;;;;7.45;3.70;;;;;;;20.54;50.19;102395.31;5015261;28;20022;-59
2022/04/15 00:03:07;;;;;;;8.02;4.35;;;;;;;20.52;50.41;102402.47;5015666;28;20069;-59
2022/04/15 00:05:45;;;;;;;6.20;3.50;;;;;;;20.52;50.26;102403.34;5015086;28;20026;-59
2022/04/15 00:08:12;;;;;;;8.85;3.90;;;;;;;20.51;50.30;102404.28;5015466;28;20117;-59
2022/04/15 00:10:40;;;;;;;8.00;3.60;;;;;;;20.50;50.17;102397.28;5015805;28;20022;-59
2022/04/15 00:13:06;;;;;;;8.30;3.65;;;;;;;20.49;50.14;102395.63;5014623;28;20390;-59
2022/04/15 00:15:32;;;;;;;7.18;3.75;;;;;;;20.49;50.00;102395.63;5015547;28;20042;-59
2022/04/15 00:17:57;;;;;;;8.30;3.78;;;;;;;20.48;50.04;102400.03;5015473;28;20018;-59
2022/04/15 00:20:23;;;;;;;7.22;3.88;;;;;;;20.48;50.04;102391.25;5014940;28;20033;-59
2022/04/15 00:22:48;;;;;;;7.72;3.65;;;;;;;20.47;49.84;102392.19;5015568;28;20034;-61
2022/04/15 00:25:16;;;;;;;7.97;4.00;;;;;;;20.46;49.71;102394.00;5015235;28;20371;-59
2022/04/15 00:27:41;;;;;;;8.98;4.28;;;;;;;20.46;49.92;102395.81;5014782;28;20018;-59
2022/04/15 00:30:15;;;;;;;7.53;3.30;;;;;;;20.45;49.78;102399.41;5015199;28;20018;-60
2022/04/15 00:32:41;;;;;;;8.38;3.85;;;;;;;20.43;49.76;102402.16;5015365;28;20026;-59
2022/04/15 00:35:07;;;;;;;8.30;4.05;;;;;;;20.41;49.83;102408.50;5014471;28;20022;-59
2022/04/15 00:37:33;;;;;;;6.78;3.45;;;;;;;20.38;49.95;102409.56;5015199;28;20018;-59
2022/04/15 00:40:02;;;;;;;9.35;3.70;;;;;;;20.38;49.81;102409.56;5015001;28;20026;-59
2022/04/15 00:42:29;;;;;;;6.65;3.50;;;;;;;20.39;49.75;102418.34;5014446;28;20022;-59
2022/04/15 00:44:58;;;;;;;6.88;3.83;;;;;;;20.37;49.69;102409.66;5014670;28;20030;-59
2022/04/15 00:47:45;;;;;;;8.05;4.20;;;;;;;20.38;49.81;102411.38;5015241;28;20037;-59
2022/04/15 00:50:12;;;;;;;7.35;3.60;;;;;;;20.36;49.67;102414.13;5014944;28;20033;-59
2022/04/15 00:52:40;;;;;;;6.82;3.85;;;;;;;20.35;49.64;102425.66;5015151;28;20120;-59
2022/04/15 00:55:06;;;;;;;6.85;3.50;;;;;;;20.33;49.65;102422.25;5013782;28;20022;-59
2022/04/15 00:57:34;;;;;;;7.80;3.70;;;;;;;20.32;49.58;102419.72;5014874;28;20088;-59
2022/04/15 01:00:01;;;;;;;6.05;3.33;;;;;;;20.31;49.74;102413.56;5014673;28;20041;-59
2022/04/15 01:02:28;;;;;;;7.90;3.90;;;;;;;20.30;49.68;102418.00;5014333;28;20034;-59
2022/04/15 01:04:55;;;;;;;9.05;3.75;;;;;;;20.29;49.52;102423.41;5014421;28;20022;-59
2022/04/15 01:07:23;;;;;;;7.05;3.58;;;;;;;20.29;49.55;102428.69;5014755;28;20053;-59
2022/04/15 01:09:58;;;;;;;6.40;3.50;;;;;;;20.29;49.58;102420.75;5013611;28;20053;-59
2022/04/15 01:12:28;;;;;;;7.07;3.78;;;;;;;20.27;49.25;102415.56;5014809;28;20076;-59
2022/04/15 01:15:04;;;;;;;8.25;3.80;;;;;;;20.27;49.37;102420.00;5014264;28;20064;-60
2022/04/15 01:17:35;;;;;;;6.07;4.10;;;;;;;20.25;49.37;102422.75;5013845;28;20030;-59
2022/04/15 01:20:07;;;;;;;8.25;4.25;;;;;;;20.24;49.07;102421.06;5014136;28;20030;-60
2022/04/15 01:22:56;;;;;;;7.75;3.75;;;;;;;20.22;49.24;102425.59;5014374;28;20432;-60
2022/04/15 01:25:21;;;;;;;8.55;3.78;;;;;;;20.23;49.31;102437.88;5013853;28;20100;-60
2022/04/15 01:27:48;;;;;;;7.07;4.30;;;;;;;20.21;49.30;102434.50;5014403;28;20030;-60
2022/04/15 01:30:19;;;;;;;7.72;3.72;;;;;;;20.20;49.60;102442.53;5013444;28;20743;-60
2022/04/15 01:32:46;;;;;;;6.43;4.03;;;;;;;20.18;49.21;102433.84;5014265;28;20030;-60
2022/04/15 01:35:17;;;;;;;8.07;3.80;;;;;;;20.18;49.13;102445.28;5013203;28;20469;-60
2022/04/15 01:37:49;;;;;;;7.25;3.38;;;;;;;20.18;49.07;102439.13;5013629;28;20381;-60
2022/04/15 01:40:17;;;;;;;6.15;3.80;;;;;;;20.16;49.17;102439.25;5014092;28;20608;-60
2022/04/15 01:42:44;;;;;;;6.28;3.47;;;;;;;20.16;49.18;102443.69;5013970;28;20466;-60
2022/04/15 01:45:10;;;;;;;6.15;3.50;;;;;;;20.16;49.02;102441.88;5012929;28;20064;-60
2022/04/15 01:47:36;;;;;;;8.30;4.13;;;;;;;20.16;48.90;102447.19;5013933;28;20018;-59
2022/04/15 01:50:03;;;;;;;6.82;3.83;;;;;;;20.14;48.97;102442.91;5013800;28;20084;-59
2022/04/15 01:52:29;;;;;;;7.43;3.40;;;;;;;20.12;48.95;102440.38;5013323;28;20040;-59
2022/04/15 01:54:54;;;;;;;7.20;3.60;;;;;;;20.11;48.81;102444.84;5013466;28;20417;-59
2022/04/15 01:57:19;;;;;;;7.38;3.67;;;;;;;20.11;48.93;102442.19;5013939;28;20025;-60
2022/04/15 01:59:44;;;;;;;5.95;3.33;;;;;;;20.10;48.98;102450.22;5013095;28;20112;-59
2022/04/15 02:02:10;;;;;;;5.50;3.50;;;;;;;20.10;48.83;102447.56;5013383;28;20080;-59
2022/04/15 02:04:36;;;;;;;7.03;3.78;;;;;;;20.09;48.83;102449.38;5013793;28;20323;-59
2022/04/15 02:07:02;;;;;;;8.60;3.67;;;;;;;20.07;48.81;102451.25;5012807;28;20381;-59
2022/04/15 02:09:27;;;;;;;7.35;3.63;;;;;;;20.06;48.80;102451.34;5013749;28;20056;-59
2022/04/15 02:11:53;;;;;;;7.50;3.80;;;;;;;20.04;49.00;102442.66;5013358;28;20022;-59
2022/04/15 02:14:19;;;;;;;6.00;3.50;;;;;;;20.05;48.73;102461.09;5012869;28;20085;-59
2022/04/15 02:16:46;;;;;;;8.10;3.90;;;;;;;20.04;48.63;102458.56;5013252;28;20050;-59
2022/04/15 02:19:11;;;;;;;7.65;3.95;;;;;;;20.03;48.61;102463.00;5012508;28;20113;-59
2022/04/15 02:21:37;;;;;;;5.95;3.20;;;;;;;20.03;48.54;102465.66;5013385;28;20113;-59
2022/04/15 02:24:03;;;;;;;6.57;3.83;;;;;;;20.03;48.50;102467.47;5013237;28;20022;-59
2022/04/15 02:26:28;;;;;;;6.75;3.70;;;;;;;20.02;48.70;102471.88;5012706;28;20444;-59
2022/04/15 02:28:53;;;;;;;7.33;3.90;;;;;;;20.01;48.55;102475.50;5013104;28;20026;-60
2022/04/15 02:31:19;;;;;;;7.60;3.90;;;;;;;19.99;48.46;102474.72;5013215;28;20286;-60
2022/04/15 02:33:44;;;;;;;6.63;3.63;;;;;;;19.98;48.44;102459.81;5012659;28;20478;-58
2022/04/15 02:36:09;;;;;;;7.03;3.47;;;;;;;19.98;48.66;102473.03;5012951;28;20033;-59
2022/04/15 02:38:35;;;;;;;8.40;4.15;;;;;;;19.97;48.32;102473.13;5013254;28;20030;-59
2022/04/15 02:41:01;;;;;;;6.00;3.50;;;;;;;19.96;48.53;102471.44;5012146;28;20040;-59
2022/04/15 02:43:31;;;;;;;7.32;3.78;;;;;;;19.94;48.33;102476.81;5013068;28;20447;-59
2022/04/15 02:46:01;;;;;;;7.18;3.55;;;;;;;19.92;48.30;102473.44;5012629;28;20030;-59
2022/04/15 02:48:26;;;;;;;8.02;3.83;;;;;;;19.91;48.42;102480.50;5012229;28;20485;-59
2022/04/15 02:50:52;;;;;;;8.50;3.72;;;;;;;19.90;48.36;102477.94;5012954;28;20072;-59
2022/04/15 02:53:18;;;;;;;8.30;3.80;;;;;;;19.91;48.16;102472.56;5013100;28;20021;-59
2022/04/15 02:55:44;;;;;;;7.18;4.15;;;;;;;19.91;48.44;102479.66;5012283;28;20125;-59
2022/04/15 02:58:09;;;;;;;6.35;3.53;;;;;;;19.90;48.44;102481.47;5012796;28;20045;-59
2022/04/15 03:00:34;;;;;;;6.50;3.80;;;;;;;19.88;48.30;102478.03;5012797;28;20445;-60
2022/04/15 03:02:59;;;;;;;6.32;3.88;;;;;;;19.87;48.06;102473.72;5012046;28;20275;-60
2022/04/15 03:05:25;;;;;;;7.97;3.92;;;;;;;19.85;48.03;102474.75;5012742;28;20394;-59
2022/04/15 03:07:50;;;;;;;6.10;3.35;;;;;;;19.85;48.21;102478.25;5012613;28;20061;-59
2022/04/15 03:10:15;;;;;;;6.95;3.40;;;;;;;19.85;48.26;102477.41;5012152;28;20114;-59
2022/04/15 03:12:41;;;;;;;6.15;3.40;;;;;;;19.83;48.22;102476.66;5012749;28;20052;-59
2022/04/15 03:15:09;;;;;;;7.20;3.80;;;;;;;19.83;48.05;102476.66;5012256;28;20057;-59
2022/04/15 03:17:38;;;;;;;6.78;3.85;;;;;;;19.83;48.19;102476.66;5012240;28;20049;-59
2022/04/15 03:20:04;;;;;;;7.05;3.67;;;;;;;19.82;48.13;102473.16;5012494;28;20026;-59
2022/04/15 03:22:30;;;;;;;7.45;3.30;;;;;;;19.81;48.12;102470.63;5011881;28;20034;-60
2022/04/15 03:24:55;;;;;;;6.80;3.38;;;;;;;19.79;48.04;102476.00;5012339;28;20026;-60
2022/04/15 03:27:21;;;;;;;5.97;3.37;;;;;;;19.77;48.01;102477.88;5012902;28;20033;-59
2022/04/15 03:29:49;;;;;;;7.75;3.88;;;;;;;19.77;48.04;102482.31;5012006;28;20033;-60
2022/04/15 03:32:14;;;;;;;8.32;3.60;;;;;;;19.77;48.14;102477.88;5012850;28;20018;-60
2022/04/15 03:34:39;;;;;;;8.77;4.00;;;;;;;19.77;48.08;102485.81;5012819;28;20492;-60
2022/04/15 03:37:05;;;;;;;6.40;3.37;;;;;;;19.74;48.03;102475.38;5011711;28;20826;-60
2022/04/15 03:39:31;;;;;;;7.65;3.20;;;;;;;19.74;47.97;102481.53;5012796;28;20704;-60
2022/04/15 03:41:56;;;;;;;6.43;3.60;;;;;;;19.74;47.82;102478.03;5012588;28;20470;-60
2022/04/15 03:44:21;;;;;;;6.70;3.40;;;;;;;19.72;47.93;102488.69;5011981;28;20037;-60
2022/04/15 03:46:46;;;;;;;7.35;3.63;;;;;;;19.72;47.64;102485.22;5012753;28;20112;-60
2022/04/15 03:49:12;;;;;;;6.68;3.70;;;;;;;19.71;47.93;102486.16;5012326;28;20470;-60
2022/04/15 03:51:37;;;;;;;5.75;3.10;;;;;;;19.70;47.86;102485.31;5011640;28;20026;-59
2022/04/15 03:54:03;;;;;;;6.72;3.42;;;;;;;19.70;47.76;102495.06;5012096;28;20030;-60
2022/04/15 03:56:28;;;;;;;5.85;3.50;;;;;;;19.69;47.95;102493.34;5012429;28;20497;-60
2022/04/15 03:58:53;;;;;;;6.05;3.30;;;;;;;19.69;47.81;102493.34;5012709;28;20033;-60
2022/04/15 04:01:18;;;;;;;7.43;3.63;;;;;;;19.68;48.01;102500.44;5016153;28;20505;-60
2022/04/15 04:03:44;;;;;;;6.10;3.60;;;;;;;19.67;47.96;102501.38;5016127;28;20286;-60
2022/04/15 04:06:09;;;;;;;6.65;3.50;;;;;;;19.66;47.78;102506.75;5014942;28;20291;-60
2022/04/15 04:08:34;;;;;;;8.85;3.92;;;;;;;19.65;47.75;102513.00;5015891;28;20076;-60
2022/04/15 04:11:02;;;;;;;7.80;3.70;;;;;;;19.65;47.90;102507.72;5015338;28;20073;-60
2022/04/15 04:13:28;;;;;;;6.53;3.03;;;;;;;19.64;47.78;102506.00;5014912;28;20283;-60
2022/04/15 04:15:56;;;;;;;7.85;3.70;;;;;;;19.62;47.93;102508.75;5015352;28;20042;-59
2022/04/15 04:18:21;;;;;;;7.22;3.40;;;;;;;19.63;47.66;102507.81;5015830;28;20084;-60
2022/04/15 04:20:48;;;;;;;7.20;3.87;;;;;;;19.63;47.66;102510.44;5014697;28;20026;-60
2022/04/15 04:23:14;;;;;;;8.45;3.88;;;;;;;19.63;48.06;102512.22;5015394;28;20313;-60
2022/04/15 04:25:39;;;;;;;7.72;4.00;;;;;;;19.61;48.06;102511.47;5014677;28;20052;-60
2022/04/15 04:28:05;;;;;;;6.30;3.87;;;;;;;19.62;48.18;102513.19;5015138;28;20501;-60
2022/04/15 04:30:33;;;;;;;6.57;3.38;;;;;;;19.60;48.14;102512.41;5015535;28;20620;-60
2022/04/15 04:32:59;;;;;;;6.75;4.28;;;;;;;19.59;48.33;102519.50;5014448;28;20448;-59
2022/04/15 04:35:25;;;;;;;6.88;4.07;;;;;;;19.58;48.24;102523.09;5015408;28;20029;-59
2022/04/15 04:37:50;;;;;;;6.38;3.63;;;;;;;19.58;48.23;102525.72;5014901;28;20076;-59
2022/04/15 04:40:16;;;;;;;7.07;3.50;;;;;;;19.57;48.56;102522.25;5014641;28;20370;-59
2022/04/15 04:42:42;;;;;;;6.65;3.85;;;;;;;19.57;48.27;102530.19;5015093;28;20034;-60
2022/04/15 04:45:10;;;;;;;8.07;3.85;;;;;;;19.59;48.48;102535.38;5014852;28;20522;-59
2022/04/15 04:47:40;;;;;;;8.10;3.85;;;;;;;19.58;48.43;102534.53;5015092;28;20382;-59
2022/04/15 04:50:08;;;;;;;6.68;3.58;;;;;;;19.60;48.57;102537.09;5015459;28;20033;-59
2022/04/15 04:52:34;;;;;;;6.75;3.15;;;;;;;19.61;48.50;102541.41;5016246;28;20034;-59
2022/04/15 04:54:59;;;;;;;6.28;3.28;;;;;;;19.59;48.12;102540.66;5015009;28;20481;-59
2022/04/15 04:57:25;;;;;;;7.30;3.10;;;;;;;19.58;48.37;102544.25;5015496;28;20030;-59
2022/04/15 04:59:50;;;;;;;7.47;2.97;;;;;;;19.59;48.50;102551.25;5014567;28;20029;-59
2022/04/15 05:02:15;;;;;;;6.10;3.15;;;;;;;19.58;48.47;102553.06;5014132;28;20279;-59
2022/04/15 05:04:40;;;;;;;5.83;3.10;;;;;;;19.60;48.54;102554.72;5014660;28;20044;-59
2022/04/15 05:07:06;;;;;;;5.00;2.60;;;;;;;19.58;48.96;102566.28;5014307;28;20026;-59
2022/04/15 05:09:31;;;;;;;6.40;2.85;;;;;;;19.61;48.41;102564.38;5013563;28;20275;-59
2022/04/15 05:12:03;;;;;;;5.55;2.97;;;;;;;19.60;48.52;102560.91;5013482;28;20029;-59
2022/04/15 05:14:28;;;;;;;6.55;2.90;;;;;;;19.60;48.78;102573.25;5014632;28;20026;-59
2022/04/15 05:16:53;;;;;;;5.40;2.47;;;;;;;19.59;48.71;102580.34;5013628;28;20036;-59
2022/04/15 05:19:18;;;;;;;6.67;2.70;;;;;;;19.61;48.77;102575.78;5014586;28;20061;-59
2022/04/15 05:21:47;;;;;;;5.63;2.90;;;;;;;19.67;49.47;102587.81;5014592;28;20302;-59
2022/04/15 05:24:12;;;;;;;7.05;2.35;;;;;;;19.70;49.95;102577.06;5013276;28;20045;-60
2022/04/15 05:26:38;;;;;;;6.93;3.27;;;;;;;19.75;50.21;102589.03;5014401;28;20504;-59
2022/04/15 05:29:04;;;;;;;7.88;2.88;;;;;;;19.80;50.16;102590.59;5013356;28;20279;-60
2022/04/15 05:31:32;;;;;;;5.30;2.30;;;;;;;19.85;50.17;102593.81;5014242;28;20117;-60
2022/04/15 05:33:57;;;;;;;5.88;2.40;;;;;;;19.89;50.06;102597.97;5014057;28;20026;-60
2022/04/15 05:36:22;;;;;;;6.20;2.30;;;;;;;19.92;50.14;102606.56;5013407;28;20385;-60
2022/04/15 05:38:47;;;;;;;6.97;2.40;;;;;;;19.94;50.44;102606.47;5014010;28;20075;-60
2022/04/15 05:41:13;;;;;;;5.07;2.33;;;;;;;19.97;50.60;102610.75;5014216;28;20485;-60
2022/04/15 05:43:44;;;;;;;6.57;2.30;;;;;;;19.99;50.67;102614.13;5013380;28;20346;-60
2022/04/15 05:46:16;;;;;;;8.98;2.83;;;;;;;20.03;50.79;102620.94;5013699;28;20338;-60
2022/04/15 05:48:41;;;;;;;6.53;2.30;;;;;;;20.06;50.69;102626.03;5014084;28;20112;-59
2022/04/15 05:51:07;;;;;;;7.93;2.40;;;;;;;20.09;50.67;102628.50;5012866;28;20157;-59
2022/04/15 05:53:32;;;;;;;5.50;2.33;;;;;;;20.10;50.37;102625.75;5013694;28;20326;-59
2022/04/15 05:55:58;;;;;;;5.55;2.05;;;;;;;20.13;50.24;102624.72;5013665;28;20033;-60
2022/04/15 05:58:25;;;;;;;6.28;3.20;;;;;;;20.10;47.85;102636.34;5012923;28;20029;-59
2022/04/15 06:00:50;;;;;;;6.28;2.35;;;;;;;20.08;49.18;102640.88;5013488;28;20382;-59
2022/04/15 06:03:16;;;;;;;5.20;2.00;;;;;;;20.07;49.38;102641.81;5013649;28;20473;-59
2022/04/15 06:05:41;;;;;;;6.95;1.77;;;;;;;20.05;49.56;102645.53;5012701;28;20484;-60
2022/04/15 06:08:07;;;;;;;5.35;1.90;;;;;;;20.06;49.88;102650.72;5013370;28;20056;-61
2022/04/15 06:10:32;;;;;;;5.28;2.00;;;;;;;20.05;50.08;102649.00;5013531;28;20541;-60
2022/04/15 06:13:00;;;;;;;7.07;2.13;;;;;;;20.09;50.03;102658.47;5012379;28;20029;-60
2022/04/15 06:15:31;;;;;;;5.30;1.92;;;;;;;20.14;49.92;102658.19;5013160;28;20042;-60
2022/04/15 06:18:00;;;;;;;4.70;2.00;;;;;;;20.18;49.71;102654.41;5013118;28;20462;-60
2022/04/15 06:20:29;;;;;;;4.53;1.88;;;;;;;20.15;49.77;102659.03;5012579;28;20059;-61
2022/04/15 06:22:55;;;;;;;4.57;1.65;;;;;;;20.11;49.95;102659.22;5013041;28;20025;-59
2022/04/15 06:25:23;;;;;;;6.65;2.03;;;;;;;20.06;49.68;102660.44;5012578;28;20026;-59
2022/04/15 06:27:52;;;;;;;4.78;2.10;;;;;;;20.08;50.17;102659.41;5013127;28;20076;-59
2022/04/15 06:30:21;;;;;;;5.88;1.95;;;;;;;20.08;50.36;102669.16;5013752;28;20071;-59
2022/04/15 06:32:47;;;;;;;5.35;2.20;;;;;;;20.12;50.56;102668.00;5012429;28;20105;-59
2022/04/15 06:35:12;;;;;;;7.57;2.15;;;;;;;20.12;50.56;102665.34;5012818;28;20125;-59
2022/04/15 06:37:37;;;;;;;7.90;2.60;;;;;;;20.12;50.52;102668.00;5013331;28;20032;-59
2022/04/15 06:40:03;;;;;;;6.47;2.30;;;;;;;20.16;50.57;102677.47;5012077;28;20767;-59
2022/04/15 06:42:30;;;;;;;8.32;2.53;;;;;;;20.22;50.43;102684.16;5013112;28;20347;-59
2022/04/15 06:44:57;;;;;;;6.65;2.20;;;;;;;20.26;50.24;102680.41;5012647;28;20096;-59
2022/04/15 06:47:22;;;;;;;5.82;2.22;;;;;;;20.27;50.22;102685.59;5012177;28;20102;-59
2022/04/15 06:49:47;;;;;;;5.18;2.35;;;;;;;20.32;50.14;102692.41;5012985;28;20053;-59
2022/04/15 06:52:17;;;;;;;6.63;2.15;;;;;;;20.36;49.97;102689.50;5012900;28;20021;-59
2022/04/15 06:54:49;;;;;;;7.78;2.40;;;;;;;20.41;49.83;102690.06;5012338;28;20064;-59
2022/04/15 06:57:15;;;;;;;5.72;2.47;;;;;;;20.45;49.66;102691.53;5013051;28;20098;-58
2022/04/15 06:59:40;;;;;;;7.75;2.22;;;;;;;20.50;50.00;102693.91;5013040;28;20045;-59
2022/04/15 07:02:06;;;;;;;5.03;1.98;;;;;;;20.54;49.77;102692.78;5011785;28;20030;-59
2022/04/15 07:04:32;;;;;;;7.05;2.75;;;;;;;20.59;49.68;102695.16;5012745;28;20458;-60
2022/04/15 07:06:58;;;;;;;6.35;2.72;;;;;;;20.62;49.72;102694.97;5012746;28;20026;-59
2022/04/15 07:09:24;;;;;;;6.07;2.53;;;;;;;20.63;49.10;102696.63;5012153;28;20028;-60
2022/04/15 07:11:52;;;;;;;7.13;3.15;;;;;;;20.63;49.33;102697.50;5012523;28;20054;-60
2022/04/15 07:14:20;;;;;;;6.18;2.47;;;;;;;20.66;49.33;102701.78;5012780;28;20030;-60
2022/04/15 07:16:45;;;;;;;5.40;2.45;;;;;;;20.65;49.58;102703.59;5011803;28;20092;-60
2022/04/15 07:19:11;;;;;;;6.13;2.42;;;;;;;20.68;49.60;102702.56;5012676;28;20018;-59
2022/04/15 07:21:38;;;;;;;5.72;2.20;;;;;;;20.70;49.62;102702.47;5012012;28;20068;-60
2022/04/15 07:24:04;;;;;;;7.43;2.50;;;;;;;20.70;49.76;102710.41;5012466;28;20026;-60
2022/04/15 07:26:32;;;;;;;7.05;2.40;;;;;;;20.70;49.60;102705.09;5012608;28;20041;-60
2022/04/15 07:28:58;;;;;;;8.13;2.40;;;;;;;20.71;49.76;102710.31;5011709;28;20030;-60
2022/04/15 07:31:24;;;;;;;5.60;2.40;;;;;;;20.72;49.74;102711.16;5012580;28;20034;-60
2022/04/15 07:33:50;;;;;;;7.55;2.88;;;;;;;20.71;49.70;102712.97;5013540;28;20030;-61
2022/04/15 07:36:42;;;;;;;7.80;2.65;;;;;;;20.70;49.87;102713.91;5015731;28;20454;-61
2022/04/15 07:39:09;;;;;;;7.18;2.28;;;;;;;20.69;49.94;102720.13;5016025;28;20030;-60
2022/04/15 07:41:36;;;;;;;6.63;2.70;;;;;;;20.69;50.24;102714.84;5016155;28;20041;-60
2022/04/15 07:44:10;;;;;;;6.18;2.38;;;;;;;20.68;49.83;102717.56;5015107;28;20041;-63
2022/04/15 07:46:37;;;;;;;8.40;2.38;;;;;;;20.69;50.03;102719.28;5016242;28;20032;-61
2022/04/15 07:49:03;;;;;;;7.13;2.75;;;;;;;20.70;50.01;102718.34;5015870;28;20042;-62
2022/04/15 07:51:28;;;;;;;5.20;2.40;;;;;;;20.69;50.01;102722.78;5015200;28;20092;-60
2022/04/15 07:53:53;;;;;;;4.57;2.03;;;;;;;20.68;50.18;102721.09;5016046;28;20076;-59
2022/04/15 07:56:21;;;;;;;6.97;2.40;;;;;;;20.68;50.50;102725.53;5015984;28;20040;-59
2022/04/15 07:58:47;;;;;;;9.23;2.10;;;;;;;20.61;50.58;102730.34;5015378;28;20041;-59
2022/04/15 08:01:12;;;;;;;8.63;2.53;;;;;;;20.60;50.61;102726.84;5015995;28;20026;-59
2022/04/15 08:03:38;;;;;;;8.77;2.53;;;;;;;20.62;50.43;102724.94;5015587;28;20267;-60
2022/04/15 08:06:04;;;;;;;6.78;2.60;;;;;;;20.67;50.38;102731.78;5015335;28;20036;-59
2022/04/15 08:08:29;;;;;;;6.20;2.55;;;;;;;20.63;50.56;102724.00;5015737;28;20120;-59
2022/04/15 08:10:56;;;;;;;9.77;2.80;;;;;;;20.67;50.50;102723.84;5014766;28;20064;-59
2022/04/15 08:13:22;;;;;;;7.03;2.20;;;;;;;20.71;50.07;102727.97;5015910;28;20022;-59
2022/04/15 08:15:53;;;;;;;5.55;2.40;;;;;;;20.75;50.11;102724.22;5015560;28;20046;-58
2022/04/15 08:18:19;;;;;;;8.48;2.40;;;;;;;20.77;50.03;102730.25;5015180;28;20032;-58
2022/04/15 08:20:44;;;;;;;8.70;2.25;;;;;;;20.78;49.91;102726.66;5015840;28;20022;-58
2022/04/15 08:23:12;;;;;;;8.38;2.95;;;;;;;20.78;49.82;102726.66;5015385;28;20022;-59
2022/04/15 08:25:38;;;;;;;6.93;2.42;;;;;;;20.81;49.86;102727.31;5014691;28;20037;-58
2022/04/15 08:28:04;;;;;;;6.07;2.42;;;;;;;20.83;49.86;102732.53;5015313;28;20026;-58
2022/04/15 08:30:33;;;;;;;8.18;2.35;;;;;;;20.83;49.66;102727.22;5015486;28;20034;-58
2022/04/15 08:32:59;;;;;;;7.15;2.58;;;;;;;20.84;49.60;102726.28;5014413;28;20022;-58
2022/04/15 08:35:24;;;;;;;7.18;2.22;;;;;;;20.84;49.59;102734.22;5015335;28;20026;-59
2022/04/15 08:37:49;;;;;;;13.60;2.47;;;;;;;20.84;49.62;102734.22;5014872;28;20373;-58
2022/04/15 08:40:15;;;;;;;8.27;2.27;;;;;;;20.81;49.99;102739.72;5014495;28;20026;-58
2022/04/15 08:42:42;;;;;;;7.78;2.50;;;;;;;20.80;49.62;102738.84;5015372;28;20767;-58
2022/04/15 08:45:08;;;;;;;9.52;2.47;;;;;;;20.80;48.93;102745.97;5014532;28;20038;-58
2022/04/15 08:47:36;;;;;;;8.52;3.50;;;;;;;20.78;49.30;102743.41;5014501;28;20109;-58
2022/04/15 08:50:01;;;;;;;7.90;2.13;;;;;;;20.79;49.69;102744.25;5014588;28;20022;-58
2022/04/15 08:52:27;;;;;;;6.70;2.40;;;;;;;20.78;49.42;102746.06;5014655;28;20026;-59
2022/04/15 08:54:52;;;;;;;6.35;2.22;;;;;;;20.78;49.20;102750.50;5013967;28;20022;-59
2022/04/15 08:57:18;;;;;;;6.85;2.20;;;;;;;20.79;49.44;102749.53;5014997;28;20018;-59
2022/04/15 08:59:43;;;;;;;6.27;2.20;;;;;;;20.78;49.58;102754.00;5015000;28;20576;-59
2022/04/15 09:02:11;;;;;;;7.80;2.20;;;;;;;20.76;49.79;102749.72;5013760;28;20283;-60
2022/04/15 09:04:36;;;;;;;5.88;1.95;;;;;;;20.77;49.99;102748.81;5014768;28;20290;-59
2022/04/15 09:07:02;;;;;;;6.05;2.33;;;;;;;20.77;49.96;102757.59;5013488;28;20025;-58
2022/04/15 09:09:30;;;;;;;9.95;2.40;;;;;;;20.78;49.75;102754.00;5014763;28;20033;-58
2022/04/15 09:12:00;;;;;;;6.97;2.38;;;;;;;20.83;49.87;102753.72;5014560;28;20064;-58
2022/04/15 09:14:27;;;;;;;5.82;1.98;;;;;;;20.86;49.88;102758.00;5013824;28;20026;-59
2022/04/15 09:16:53;;;;;;;6.68;2.47;;;;;;;20.88;49.52;102764.03;5014545;28;20108;-58
2022/04/15 09:19:19;;;;;;;7.18;2.22;;;;;;;20.88;49.75;102762.22;5014585;28;20025;-59
2022/04/15 09:21:52;;;;;;;5.63;1.80;;;;;;;20.90;49.70;102756.81;5013486;28;20125;-60
2022/04/15 09:24:26;;;;;;;6.30;2.10;;;;;;;20.97;49.59;102764.28;5014425;28;20068;-60
2022/04/15 09:26:53;;;;;;;6.55;1.83;;;;;;;21.01;49.62;102763.16;5014262;28;20080;-58
2022/04/15 09:29:21;;;;;;;7.45;2.10;;;;;;;21.02;49.81;102764.84;5013430;28;20386;-58
2022/04/15 09:31:46;;;;;;;5.35;2.10;;;;;;;21.05;49.47;102763.81;5014296;28;20026;-58
2022/04/15 09:34:12;;;;;;;7.03;2.00;;;;;;;21.08;49.39;102773.34;5013905;28;20072;-58
2022/04/15 09:36:39;;;;;;;6.63;1.90;;;;;;;21.08;49.37;102765.41;5013412;28;20076;-58
2022/04/15 09:39:10;;;;;;;10.43;2.13;;;;;;;21.10;49.56;102766.19;5013943;28;20321;-57
2022/04/15 09:41:40;;;;;;;6.78;2.25;;;;;;;21.10;49.22;102769.66;5014348;28;20018;-58
2022/04/15 09:44:06;;;;;;;7.25;2.00;;;;;;;21.13;49.26;102768.63;5013281;28;20022;-58
2022/04/15 09:46:31;;;;;;;6.85;2.33;;;;;;;21.13;49.34;102774.78;5014055;28;20029;-58
2022/04/15 09:49:02;;;;;;;6.10;2.17;;;;;;;21.13;49.55;102774.78;5013566;28;20031;-59
2022/04/15 09:51:33;;;;;;;5.63;1.90;;;;;;;21.15;49.67;102775.53;5013388;28;20034;-59
2022/04/15 09:54:01;;;;;;;7.65;2.75;;;;;;;21.16;49.66;102774.59;5013965;28;20107;-60
2022/04/15 09:56:27;;;;;;;6.88;1.70;;;;;;;21.16;49.68;102771.94;5012700;28;20478;-58
2022/04/15 09:58:56;;;;;;;7.03;2.00;;;;;;;21.16;49.58;102771.94;5014098;28;20037;-58
2022/04/15 10:01:29;;;;;;;5.38;1.90;;;;;;;21.16;49.64;102771.94;5014415;28;20022;-58
2022/04/15 10:03:55;;;;;;;6.15;1.90;;;;;;;21.16;49.14;102777.22;5013229;28;20470;-58
2022/04/15 10:06:20;;;;;;;8.15;3.58;;;;;;;21.16;49.38;102776.41;5014663;28;20034;-58
2022/04/15 10:08:46;;;;;;;6.63;2.40;;;;;;;21.14;50.09;102771.19;5013713;28;20445;-59
2022/04/15 10:11:12;;;;;;;7.03;2.30;;;;;;;21.14;49.93;102772.97;5012572;28;20279;-58
2022/04/15 10:13:39;;;;;;;7.00;1.85;;;;;;;21.13;49.64;102766.81;5013594;28;20025;-59
2022/04/15 10:16:05;;;;;;;5.00;1.80;;;;;;;21.14;49.27;102770.31;5012828;28;20041;-59
2022/04/15 10:18:31;;;;;;;6.75;2.30;;;;;;;21.14;49.39;102770.31;5012955;28;20041;-59
2022/04/15 10:20:58;;;;;;;5.63;1.70;;;;;;;21.12;49.71;102769.56;5013287;28;20026;-59
2022/04/15 10:23:24;;;;;;;7.30;2.25;;;;;;;21.11;49.62;102762.56;5013171;28;20393;-60
2022/04/15 10:25:51;;;;;;;7.28;2.03;;;;;;;21.13;49.66;102769.47;5012092;28;20117;-59
2022/04/15 10:28:18;;;;;;;5.85;2.10;;;;;;;21.17;49.66;102767.47;5013249;28;20033;-59
2022/04/15 10:31:11;;;;;;;9.30;1.88;;;;;;;21.17;49.65;102765.69;5013072;28;20022;-59
2022/04/15 10:33:39;;;;;;;6.00;1.80;;;;;;;21.17;49.71;102765.69;5014775;28;20038;-60
2022/04/15 10:36:22;;;;;;;9.15;2.45;;;;;;;21.19;49.95;102762.94;5012775;28;20466;-58
2022/04/15 10:39:06;;;;;;;7.53;2.05;;;;;;;21.20;49.54;102760.19;5012373;28;20112;-58
2022/04/15 10:41:48;;;;;;;5.65;1.80;;;;;;;21.23;49.81;102755.63;5013462;28;20105;-58
2022/04/15 10:44:25;;;;;;;9.32;3.65;;;;;;;21.24;49.34;102752.00;5013298;28;20026;-59
2022/04/15 10:46:50;;;;;;;12.00;8.10;;;;;;;21.22;49.54;102749.50;5012056;28;20126;-59
2022/04/15 10:49:20;;;;;;;19.80;14.25;;;;;;;21.23;49.70;102751.16;5012962;28;20061;-60
2022/04/15 10:51:46;;;;;;;19.70;16.95;;;;;;;21.25;49.34;102749.25;5013184;28;20032;-60
2022/04/15 10:54:30;;;;;;;24.98;20.42;;;;;;;21.25;49.69;102749.25;5012028;28;20109;-60
2022/04/15 10:56:59;;;;;;;;;;;;;;;21.23;49.61;102751.16;5013091;28;20022;-59
2022/04/15 11:02:21;;;;;;;23.85;21.38;;;;;;;21.24;50.21;102746.72;5013015;28;20520;-59
2022/04/15 11:04:51;;;;;;;23.70;21.35;;;;;;;21.24;50.00;102749.34;5012799;28;20478;-58
2022/04/15 11:07:26;;;;;;;23.30;20.95;;;;;;;21.21;50.14;102742.47;5012143;28;20088;-59
2022/04/15 11:09:52;;;;;;;25.35;21.75;;;;;;;21.23;50.34;102747.69;5015533;28;20026;-59
2022/04/15 11:12:35;;;;;;;24.02;21.40;;;;;;;21.23;50.13;102755.63;5016810;28;20026;-59
2022/04/15 11:15:00;;;;;;;22.05;17.70;;;;;;;21.20;46.19;102748.72;5015823;28;20469;-63
2022/04/15 11:17:52;;;;;;;14.75;12.27;;;;;;;21.15;45.69;102743.69;5016926;28;20474;-60
2022/04/15 11:20:17;;;;;;;17.35;12.93;;;;;;;21.12;47.49;102748.38;5016748;28;20476;-59
2022/04/15 11:22:45;;;;;;;18.00;15.07;;;;;;;21.11;48.61;102755.47;5015756;28;20108;-58
2022/04/15 11:25:12;;;;;;;16.80;14.73;;;;;;;21.11;49.20;102746.66;5016554;28;20022;-60
2022/04/15 11:27:45;;;;;;;15.48;13.57;;;;;;;21.09;49.15;102740.59;5016079;28;20026;-61